sensor_id;sensor_type;location;lat;lon;timestamp;P1;durP1;ratioP1;P2;durP2;ratioP2
54263;SDS011;40178;53.042;6.406;2022-12-18T00:02:06;73.45;;;26.10;;
54263;SDS011;40178;53.042;6.406;2022-12-18T00:04:31;83.35;;;26.67;;
54263;SDS011;40178;53.042;6.406;2022-12-18T00:06:57;75.57;;;27.67;;
54263;SDS011;40178;53.042;6.406;2022-12-18T00:09:23;79.30;;;28.23;;
54263;SDS011;40178;53.042;6.406;2022-12-18T00:11:48;79.38;;;29.75;;
54263;SDS011;40178;53.042;6.406;2022-12-18T00:14:14;79.38;;;28.17;;
54263;SDS011;40178;53.042;6.406;2022-12-18T00:16:42;82.47;;;28.42;;
54263;SDS011;40178;53.042;6.406;2022-12-18T00:19:09;82.88;;;27.90;;
54263;SDS011;40178;53.042;6.406;2022-12-18T00:21:35;80.97;;;28.63;;
54263;SDS011;40178;53.042;6.406;2022-12-18T00:24:01;76.45;;;27.73;;
54263;SDS011;40178;53.042;6.406;2022-12-18T00:26:31;80.18;;;28.70;;
54263;SDS011;40178;53.042;6.406;2022-12-18T00:28:58;82.75;;;27.85;;
54263;SDS011;40178;53.042;6.406;2022-12-18T00:31:29;80.47;;;27.60;;
54263;SDS011;40178;53.042;6.406;2022-12-18T00:33:55;77.28;;;27.55;;
54263;SDS011;40178;53.042;6.406;2022-12-18T00:36:23;81.78;;;27.38;;
54263;SDS011;40178;53.042;6.406;2022-12-18T00:38:50;86.50;;;27.63;;
54263;SDS011;40178;53.042;6.406;2022-12-18T00:41:16;85.13;;;28.63;;
54263;SDS011;40178;53.042;6.406;2022-12-18T00:44:02;80.05;;;25.88;;
54263;SDS011;40178;53.042;6.406;2022-12-18T00:46:29;79.05;;;25.73;;
54263;SDS011;40178;53.042;6.406;2022-12-18T00:48:55;79.78;;;27.00;;
54263;SDS011;40178;53.042;6.406;2022-12-18T00:51:20;76.40;;;27.00;;
54263;SDS011;40178;53.042;6.406;2022-12-18T00:53:46;77.80;;;26.45;;
54263;SDS011;40178;53.042;6.406;2022-12-18T00:56:11;76.78;;;25.17;;
54263;SDS011;40178;53.042;6.406;2022-12-18T00:58:37;70.28;;;24.88;;
54263;SDS011;40178;53.042;6.406;2022-12-18T01:01:03;74.85;;;26.17;;
54263;SDS011;40178;53.042;6.406;2022-12-18T01:03:30;66.15;;;25.38;;
54263;SDS011;40178;53.042;6.406;2022-12-18T01:05:55;63.55;;;24.33;;
54263;SDS011;40178;53.042;6.406;2022-12-18T01:08:21;65.25;;;23.20;;
54263;SDS011;40178;53.042;6.406;2022-12-18T01:10:47;63.10;;;23.60;;
54263;SDS011;40178;53.042;6.406;2022-12-18T01:13:12;67.13;;;22.92;;
54263;SDS011;40178;53.042;6.406;2022-12-18T01:15:38;72.22;;;24.70;;
54263;SDS011;40178;53.042;6.406;2022-12-18T01:18:04;63.42;;;25.67;;
54263;SDS011;40178;53.042;6.406;2022-12-18T01:20:31;64.90;;;23.98;;
54263;SDS011;40178;53.042;6.406;2022-12-18T01:22:57;65.15;;;25.08;;
54263;SDS011;40178;53.042;6.406;2022-12-18T01:25:22;69.03;;;24.67;;
54263;SDS011;40178;53.042;6.406;2022-12-18T01:27:48;65.90;;;26.45;;
54263;SDS011;40178;53.042;6.406;2022-12-18T01:30:13;75.30;;;24.50;;
54263;SDS011;40178;53.042;6.406;2022-12-18T01:32:39;62.22;;;24.63;;
54263;SDS011;40178;53.042;6.406;2022-12-18T01:35:05;74.70;;;25.33;;
54263;SDS011;40178;53.042;6.406;2022-12-18T01:37:31;72.53;;;25.85;;
54263;SDS011;40178;53.042;6.406;2022-12-18T01:39:56;73.35;;;26.40;;
54263;SDS011;40178;53.042;6.406;2022-12-18T01:42:22;71.13;;;25.40;;
54263;SDS011;40178;53.042;6.406;2022-12-18T01:47:18;77.07;;;27.55;;
54263;SDS011;40178;53.042;6.406;2022-12-18T01:49:48;60.80;;;23.40;;
54263;SDS011;40178;53.042;6.406;2022-12-18T01:52:14;69.20;;;24.08;;
54263;SDS011;40178;53.042;6.406;2022-12-18T01:54:42;72.53;;;25.08;;
54263;SDS011;40178;53.042;6.406;2022-12-18T01:57:08;77.60;;;25.88;;
54263;SDS011;40178;53.042;6.406;2022-12-18T01:59:33;61.35;;;21.98;;
54263;SDS011;40178;53.042;6.406;2022-12-18T02:02:01;64.28;;;24.40;;
54263;SDS011;40178;53.042;6.406;2022-12-18T02:04:28;70.32;;;24.42;;
54263;SDS011;40178;53.042;6.406;2022-12-18T02:06:55;64.72;;;23.95;;
54263;SDS011;40178;53.042;6.406;2022-12-18T02:09:44;60.78;;;23.70;;
54263;SDS011;40178;53.042;6.406;2022-12-18T02:12:19;59.28;;;23.80;;
54263;SDS011;40178;53.042;6.406;2022-12-18T02:14:49;58.33;;;22.48;;
54263;SDS011;40178;53.042;6.406;2022-12-18T02:17:18;69.25;;;25.20;;
54263;SDS011;40178;53.042;6.406;2022-12-18T02:19:52;65.18;;;24.60;;
54263;SDS011;40178;53.042;6.406;2022-12-18T02:23:13;67.95;;;25.02;;
54263;SDS011;40178;53.042;6.406;2022-12-18T02:28:41;81.30;;;26.50;;
54263;SDS011;40178;53.042;6.406;2022-12-18T02:31:11;72.93;;;26.88;;
54263;SDS011;40178;53.042;6.406;2022-12-18T02:33:40;73.93;;;26.80;;
54263;SDS011;40178;53.042;6.406;2022-12-18T02:36:09;76.15;;;28.42;;
54263;SDS011;40178;53.042;6.406;2022-12-18T02:38:37;79.15;;;28.30;;
54263;SDS011;40178;53.042;6.406;2022-12-18T02:41:04;74.50;;;27.30;;
54263;SDS011;40178;53.042;6.406;2022-12-18T02:43:31;76.25;;;28.00;;
54263;SDS011;40178;53.042;6.406;2022-12-18T02:45:57;82.15;;;29.58;;
54263;SDS011;40178;53.042;6.406;2022-12-18T02:48:27;84.07;;;29.05;;
54263;SDS011;40178;53.042;6.406;2022-12-18T02:53:42;82.70;;;28.70;;
54263;SDS011;40178;53.042;6.406;2022-12-18T03:04:02;70.53;;;28.45;;
54263;SDS011;40178;53.042;6.406;2022-12-18T03:06:37;74.35;;;28.30;;
54263;SDS011;40178;53.042;6.406;2022-12-18T03:09:09;70.35;;;28.02;;
54263;SDS011;40178;53.042;6.406;2022-12-18T03:11:40;72.40;;;26.65;;
54263;SDS011;40178;53.042;6.406;2022-12-18T03:14:26;70.13;;;26.70;;
54263;SDS011;40178;53.042;6.406;2022-12-18T03:16:57;57.70;;;26.67;;
54263;SDS011;40178;53.042;6.406;2022-12-18T03:19:26;65.18;;;25.65;;
54263;SDS011;40178;53.042;6.406;2022-12-18T03:21:55;67.88;;;25.88;;
54263;SDS011;40178;53.042;6.406;2022-12-18T03:24:22;68.55;;;26.50;;
54263;SDS011;40178;53.042;6.406;2022-12-18T03:26:52;65.07;;;27.10;;
54263;SDS011;40178;53.042;6.406;2022-12-18T03:29:24;75.22;;;26.90;;
54263;SDS011;40178;53.042;6.406;2022-12-18T03:31:54;69.28;;;26.52;;
54263;SDS011;40178;53.042;6.406;2022-12-18T03:34:24;64.30;;;24.35;;
54263;SDS011;40178;53.042;6.406;2022-12-18T03:36:54;70.32;;;26.30;;
54263;SDS011;40178;53.042;6.406;2022-12-18T03:39:20;65.30;;;25.67;;
54263;SDS011;40178;53.042;6.406;2022-12-18T03:41:55;61.50;;;25.20;;
54263;SDS011;40178;53.042;6.406;2022-12-18T03:44:26;58.60;;;23.90;;
54263;SDS011;40178;53.042;6.406;2022-12-18T03:49:32;59.65;;;23.25;;
54263;SDS011;40178;53.042;6.406;2022-12-18T03:52:13;61.58;;;25.17;;
54263;SDS011;40178;53.042;6.406;2022-12-18T03:54:47;61.05;;;25.63;;
54263;SDS011;40178;53.042;6.406;2022-12-18T03:57:19;62.35;;;23.67;;
54263;SDS011;40178;53.042;6.406;2022-12-18T03:59:49;55.55;;;24.05;;
54263;SDS011;40178;53.042;6.406;2022-12-18T04:02:19;62.83;;;25.48;;
54263;SDS011;40178;53.042;6.406;2022-12-18T04:04:47;60.55;;;25.10;;
54263;SDS011;40178;53.042;6.406;2022-12-18T04:07:17;62.63;;;23.48;;
54263;SDS011;40178;53.042;6.406;2022-12-18T04:09:44;61.20;;;24.42;;
54263;SDS011;40178;53.042;6.406;2022-12-18T04:12:11;60.45;;;23.60;;
54263;SDS011;40178;53.042;6.406;2022-12-18T04:14:37;57.78;;;24.08;;
54263;SDS011;40178;53.042;6.406;2022-12-18T04:17:02;57.45;;;24.63;;
54263;SDS011;40178;53.042;6.406;2022-12-18T04:19:28;58.15;;;23.27;;
54263;SDS011;40178;53.042;6.406;2022-12-18T04:21:54;63.08;;;24.10;;
54263;SDS011;40178;53.042;6.406;2022-12-18T04:24:20;61.75;;;23.92;;
54263;SDS011;40178;53.042;6.406;2022-12-18T04:26:45;55.75;;;24.40;;
54263;SDS011;40178;53.042;6.406;2022-12-18T04:29:11;56.13;;;23.02;;
54263;SDS011;40178;53.042;6.406;2022-12-18T04:31:36;57.80;;;22.58;;
54263;SDS011;40178;53.042;6.406;2022-12-18T04:34:02;58.10;;;23.33;;
54263;SDS011;40178;53.042;6.406;2022-12-18T04:36:28;54.40;;;23.23;;
54263;SDS011;40178;53.042;6.406;2022-12-18T04:38:54;58.47;;;22.70;;
54263;SDS011;40178;53.042;6.406;2022-12-18T04:41:19;58.58;;;23.17;;
54263;SDS011;40178;53.042;6.406;2022-12-18T04:43:45;54.53;;;21.23;;
54263;SDS011;40178;53.042;6.406;2022-12-18T04:46:11;50.45;;;21.15;;
54263;SDS011;40178;53.042;6.406;2022-12-18T04:48:36;58.72;;;22.52;;
54263;SDS011;40178;53.042;6.406;2022-12-18T04:51:02;57.85;;;23.27;;
54263;SDS011;40178;53.042;6.406;2022-12-18T04:53:29;64.18;;;23.20;;
54263;SDS011;40178;53.042;6.406;2022-12-18T04:56:28;56.58;;;22.30;;
54263;SDS011;40178;53.042;6.406;2022-12-18T04:58:47;60.80;;;22.88;;
54263;SDS011;40178;53.042;6.406;2022-12-18T05:01:13;49.67;;;21.65;;
54263;SDS011;40178;53.042;6.406;2022-12-18T05:03:40;56.50;;;23.08;;
54263;SDS011;40178;53.042;6.406;2022-12-18T05:06:06;50.20;;;21.30;;
54263;SDS011;40178;53.042;6.406;2022-12-18T05:08:32;58.78;;;23.77;;
54263;SDS011;40178;53.042;6.406;2022-12-18T05:10:59;57.10;;;22.35;;
54263;SDS011;40178;53.042;6.406;2022-12-18T05:13:31;53.35;;;21.10;;
54263;SDS011;40178;53.042;6.406;2022-12-18T05:15:58;55.35;;;20.85;;
54263;SDS011;40178;53.042;6.406;2022-12-18T05:18:23;49.38;;;21.60;;
54263;SDS011;40178;53.042;6.406;2022-12-18T05:20:50;55.08;;;22.75;;
54263;SDS011;40178;53.042;6.406;2022-12-18T05:23:17;55.03;;;21.98;;
54263;SDS011;40178;53.042;6.406;2022-12-18T05:25:46;53.92;;;22.88;;
54263;SDS011;40178;53.042;6.406;2022-12-18T05:28:18;59.63;;;23.45;;
54263;SDS011;40178;53.042;6.406;2022-12-18T05:30:47;49.67;;;22.08;;
54263;SDS011;40178;53.042;6.406;2022-12-18T05:33:14;55.05;;;23.33;;
54263;SDS011;40178;53.042;6.406;2022-12-18T05:35:40;49.10;;;21.00;;
54263;SDS011;40178;53.042;6.406;2022-12-18T05:38:05;55.40;;;23.75;;
54263;SDS011;40178;53.042;6.406;2022-12-18T05:40:31;48.35;;;20.55;;
54263;SDS011;40178;53.042;6.406;2022-12-18T05:42:57;51.92;;;21.00;;
54263;SDS011;40178;53.042;6.406;2022-12-18T05:45:22;48.53;;;21.23;;
54263;SDS011;40178;53.042;6.406;2022-12-18T05:47:48;53.78;;;20.05;;
54263;SDS011;40178;53.042;6.406;2022-12-18T05:50:13;53.42;;;21.83;;
54263;SDS011;40178;53.042;6.406;2022-12-18T05:52:39;44.97;;;19.70;;
54263;SDS011;40178;53.042;6.406;2022-12-18T05:55:04;50.55;;;20.45;;
54263;SDS011;40178;53.042;6.406;2022-12-18T05:57:30;47.53;;;20.42;;
54263;SDS011;40178;53.042;6.406;2022-12-18T05:59:56;46.00;;;20.13;;
54263;SDS011;40178;53.042;6.406;2022-12-18T06:02:21;48.38;;;21.23;;
54263;SDS011;40178;53.042;6.406;2022-12-18T06:04:47;46.53;;;20.65;;
54263;SDS011;40178;53.042;6.406;2022-12-18T06:07:13;49.75;;;20.63;;
54263;SDS011;40178;53.042;6.406;2022-12-18T06:09:38;49.30;;;20.95;;
54263;SDS011;40178;53.042;6.406;2022-12-18T06:12:04;45.55;;;18.42;;
54263;SDS011;40178;53.042;6.406;2022-12-18T06:14:30;47.13;;;18.77;;
54263;SDS011;40178;53.042;6.406;2022-12-18T06:16:55;42.95;;;18.75;;
54263;SDS011;40178;53.042;6.406;2022-12-18T06:19:21;42.90;;;19.35;;
54263;SDS011;40178;53.042;6.406;2022-12-18T06:21:47;41.78;;;18.63;;
54263;SDS011;40178;53.042;6.406;2022-12-18T06:24:12;47.60;;;19.77;;
54263;SDS011;40178;53.042;6.406;2022-12-18T06:26:38;43.03;;;18.33;;
54263;SDS011;40178;53.042;6.406;2022-12-18T06:29:04;47.10;;;18.05;;
54263;SDS011;40178;53.042;6.406;2022-12-18T06:31:30;39.03;;;17.63;;
54263;SDS011;40178;53.042;6.406;2022-12-18T06:33:56;40.58;;;18.40;;
54263;SDS011;40178;53.042;6.406;2022-12-18T06:36:22;48.92;;;18.48;;
54263;SDS011;40178;53.042;6.406;2022-12-18T06:38:47;47.97;;;19.02;;
54263;SDS011;40178;53.042;6.406;2022-12-18T06:41:14;41.35;;;18.65;;
54263;SDS011;40178;53.042;6.406;2022-12-18T06:43:41;40.95;;;18.40;;
54263;SDS011;40178;53.042;6.406;2022-12-18T06:46:08;42.55;;;18.88;;
54263;SDS011;40178;53.042;6.406;2022-12-18T06:48:34;42.03;;;17.58;;
54263;SDS011;40178;53.042;6.406;2022-12-18T06:50:59;38.33;;;17.80;;
54263;SDS011;40178;53.042;6.406;2022-12-18T06:53:25;34.35;;;17.27;;
54263;SDS011;40178;53.042;6.406;2022-12-18T06:55:52;38.95;;;17.48;;
54263;SDS011;40178;53.042;6.406;2022-12-18T06:58:18;38.95;;;18.33;;
54263;SDS011;40178;53.042;6.406;2022-12-18T07:00:43;39.00;;;17.73;;
54263;SDS011;40178;53.042;6.406;2022-12-18T07:03:09;40.45;;;18.23;;
54263;SDS011;40178;53.042;6.406;2022-12-18T07:05:39;37.50;;;16.73;;
54263;SDS011;40178;53.042;6.406;2022-12-18T07:08:06;34.00;;;16.83;;
54263;SDS011;40178;53.042;6.406;2022-12-18T07:10:31;39.13;;;17.02;;
54263;SDS011;40178;53.042;6.406;2022-12-18T07:12:57;32.47;;;16.75;;
54263;SDS011;40178;53.042;6.406;2022-12-18T07:15:22;34.10;;;16.58;;
54263;SDS011;40178;53.042;6.406;2022-12-18T07:17:48;34.75;;;16.52;;
54263;SDS011;40178;53.042;6.406;2022-12-18T07:20:14;38.75;;;16.70;;
54263;SDS011;40178;53.042;6.406;2022-12-18T07:22:39;36.90;;;16.27;;
54263;SDS011;40178;53.042;6.406;2022-12-18T07:25:05;33.10;;;16.48;;
54263;SDS011;40178;53.042;6.406;2022-12-18T07:27:31;38.65;;;16.98;;
54263;SDS011;40178;53.042;6.406;2022-12-18T07:29:57;40.10;;;16.85;;
54263;SDS011;40178;53.042;6.406;2022-12-18T07:32:23;37.15;;;17.02;;
54263;SDS011;40178;53.042;6.406;2022-12-18T07:34:48;41.42;;;17.67;;
54263;SDS011;40178;53.042;6.406;2022-12-18T07:37:14;42.00;;;18.77;;
54263;SDS011;40178;53.042;6.406;2022-12-18T07:39:39;35.42;;;17.08;;
54263;SDS011;40178;53.042;6.406;2022-12-18T07:42:05;42.38;;;17.00;;
54263;SDS011;40178;53.042;6.406;2022-12-18T07:44:50;34.30;;;16.40;;
54263;SDS011;40178;53.042;6.406;2022-12-18T07:47:16;34.50;;;16.63;;
54263;SDS011;40178;53.042;6.406;2022-12-18T07:49:41;37.35;;;16.75;;
54263;SDS011;40178;53.042;6.406;2022-12-18T07:52:07;35.30;;;16.73;;
54263;SDS011;40178;53.042;6.406;2022-12-18T07:54:34;36.63;;;17.77;;
54263;SDS011;40178;53.042;6.406;2022-12-18T07:57:00;32.78;;;16.27;;
54263;SDS011;40178;53.042;6.406;2022-12-18T07:59:25;35.58;;;17.15;;
54263;SDS011;40178;53.042;6.406;2022-12-18T08:01:51;37.88;;;16.00;;
54263;SDS011;40178;53.042;6.406;2022-12-18T08:04:16;35.63;;;15.95;;
54263;SDS011;40178;53.042;6.406;2022-12-18T08:06:42;31.65;;;16.33;;
54263;SDS011;40178;53.042;6.406;2022-12-18T08:09:09;34.47;;;16.88;;
54263;SDS011;40178;53.042;6.406;2022-12-18T08:11:35;34.92;;;17.30;;
54263;SDS011;40178;53.042;6.406;2022-12-18T08:14:00;34.92;;;16.02;;
54263;SDS011;40178;53.042;6.406;2022-12-18T08:16:26;37.30;;;17.83;;
54263;SDS011;40178;53.042;6.406;2022-12-18T08:18:52;31.10;;;15.98;;
54263;SDS011;40178;53.042;6.406;2022-12-18T08:21:19;33.95;;;16.23;;
54263;SDS011;40178;53.042;6.406;2022-12-18T08:23:48;31.92;;;15.45;;
54263;SDS011;40178;53.042;6.406;2022-12-18T08:26:14;34.85;;;16.55;;
54263;SDS011;40178;53.042;6.406;2022-12-18T08:28:40;32.55;;;16.48;;
54263;SDS011;40178;53.042;6.406;2022-12-18T08:31:07;36.63;;;16.00;;
54263;SDS011;40178;53.042;6.406;2022-12-18T08:33:33;29.75;;;15.80;;
54263;SDS011;40178;53.042;6.406;2022-12-18T08:36:00;35.80;;;16.00;;
54263;SDS011;40178;53.042;6.406;2022-12-18T08:38:26;32.38;;;14.48;;
54263;SDS011;40178;53.042;6.406;2022-12-18T08:40:58;28.02;;;14.55;;
54263;SDS011;40178;53.042;6.406;2022-12-18T08:43:25;29.30;;;15.77;;
54263;SDS011;40178;53.042;6.406;2022-12-18T08:46:09;28.25;;;13.95;;
54263;SDS011;40178;53.042;6.406;2022-12-18T08:48:34;31.00;;;14.85;;
54263;SDS011;40178;53.042;6.406;2022-12-18T08:51:00;26.90;;;13.63;;
54263;SDS011;40178;53.042;6.406;2022-12-18T08:53:26;29.25;;;15.10;;
54263;SDS011;40178;53.042;6.406;2022-12-18T08:55:52;32.33;;;13.52;;
54263;SDS011;40178;53.042;6.406;2022-12-18T08:58:18;28.88;;;14.00;;
54263;SDS011;40178;53.042;6.406;2022-12-18T09:00:44;27.25;;;14.60;;
54263;SDS011;40178;53.042;6.406;2022-12-18T09:03:13;26.13;;;13.88;;
54263;SDS011;40178;53.042;6.406;2022-12-18T09:05:43;27.75;;;14.30;;
54263;SDS011;40178;53.042;6.406;2022-12-18T09:08:11;28.02;;;14.25;;
54263;SDS011;40178;53.042;6.406;2022-12-18T09:10:43;25.15;;;12.95;;
54263;SDS011;40178;53.042;6.406;2022-12-18T09:13:10;28.30;;;13.98;;
54263;SDS011;40178;53.042;6.406;2022-12-18T09:15:40;29.10;;;13.13;;
54263;SDS011;40178;53.042;6.406;2022-12-18T09:18:07;27.95;;;13.00;;
54263;SDS011;40178;53.042;6.406;2022-12-18T09:20:34;29.88;;;14.02;;
54263;SDS011;40178;53.042;6.406;2022-12-18T09:23:01;27.85;;;12.75;;
54263;SDS011;40178;53.042;6.406;2022-12-18T09:25:26;24.95;;;13.30;;
54263;SDS011;40178;53.042;6.406;2022-12-18T09:27:57;27.48;;;14.80;;
54263;SDS011;40178;53.042;6.406;2022-12-18T09:30:44;23.90;;;12.67;;
54263;SDS011;40178;53.042;6.406;2022-12-18T09:33:11;27.05;;;13.73;;
54263;SDS011;40178;53.042;6.406;2022-12-18T09:35:38;24.80;;;13.25;;
54263;SDS011;40178;53.042;6.406;2022-12-18T09:38:04;25.10;;;12.55;;
54263;SDS011;40178;53.042;6.406;2022-12-18T09:40:34;27.95;;;14.30;;
54263;SDS011;40178;53.042;6.406;2022-12-18T09:43:24;25.25;;;11.80;;
54263;SDS011;40178;53.042;6.406;2022-12-18T09:45:55;22.83;;;12.10;;
54263;SDS011;40178;53.042;6.406;2022-12-18T09:48:32;24.92;;;12.43;;
54263;SDS011;40178;53.042;6.406;2022-12-18T09:51:18;27.98;;;11.85;;
54263;SDS011;40178;53.042;6.406;2022-12-18T09:53:53;26.65;;;12.10;;
54263;SDS011;40178;53.042;6.406;2022-12-18T09:56:24;22.15;;;13.05;;
54263;SDS011;40178;53.042;6.406;2022-12-18T09:58:57;21.75;;;11.60;;
54263;SDS011;40178;53.042;6.406;2022-12-18T10:01:24;22.42;;;11.65;;
54263;SDS011;40178;53.042;6.406;2022-12-18T10:03:52;22.00;;;11.52;;
54263;SDS011;40178;53.042;6.406;2022-12-18T10:06:23;20.92;;;11.70;;
54263;SDS011;40178;53.042;6.406;2022-12-18T10:09:17;18.92;;;9.93;;
54263;SDS011;40178;53.042;6.406;2022-12-18T10:12:00;21.38;;;10.38;;
54263;SDS011;40178;53.042;6.406;2022-12-18T10:28:20;19.15;;;9.50;;
54263;SDS011;40178;53.042;6.406;2022-12-18T10:30:47;19.02;;;9.15;;
54263;SDS011;40178;53.042;6.406;2022-12-18T10:33:13;16.67;;;8.98;;
54263;SDS011;40178;53.042;6.406;2022-12-18T10:35:42;17.45;;;8.77;;
54263;SDS011;40178;53.042;6.406;2022-12-18T10:43:27;18.15;;;8.55;;
54263;SDS011;40178;53.042;6.406;2022-12-18T10:46:04;16.63;;;7.93;;
54263;SDS011;40178;53.042;6.406;2022-12-18T10:48:41;16.10;;;7.80;;
54263;SDS011;40178;53.042;6.406;2022-12-18T10:51:26;15.23;;;7.50;;
54263;SDS011;40178;53.042;6.406;2022-12-18T10:53:57;16.05;;;8.23;;
54263;SDS011;40178;53.042;6.406;2022-12-18T10:56:25;15.20;;;7.20;;
54263;SDS011;40178;53.042;6.406;2022-12-18T10:59:02;14.85;;;6.95;;
54263;SDS011;40178;53.042;6.406;2022-12-18T11:01:50;15.70;;;6.40;;
54263;SDS011;40178;53.042;6.406;2022-12-18T11:04:17;13.15;;;7.03;;
54263;SDS011;40178;53.042;6.406;2022-12-18T11:07:00;13.02;;;5.97;;
54263;SDS011;40178;53.042;6.406;2022-12-18T11:09:31;12.20;;;6.15;;
54263;SDS011;40178;53.042;6.406;2022-12-18T11:12:00;12.65;;;6.45;;
54263;SDS011;40178;53.042;6.406;2022-12-18T11:16:56;12.25;;;5.80;;
54263;SDS011;40178;53.042;6.406;2022-12-18T11:19:37;12.38;;;5.28;;
54263;SDS011;40178;53.042;6.406;2022-12-18T11:22:17;11.20;;;5.60;;
54263;SDS011;40178;53.042;6.406;2022-12-18T11:24:51;10.68;;;5.35;;
54263;SDS011;40178;53.042;6.406;2022-12-18T11:27:21;12.02;;;5.60;;
54263;SDS011;40178;53.042;6.406;2022-12-18T11:29:47;10.02;;;5.20;;
54263;SDS011;40178;53.042;6.406;2022-12-18T11:32:33;13.10;;;5.32;;
54263;SDS011;40178;53.042;6.406;2022-12-18T11:35:13;10.45;;;5.50;;
54263;SDS011;40178;53.042;6.406;2022-12-18T11:37:46;10.77;;;4.80;;
54263;SDS011;40178;53.042;6.406;2022-12-18T11:40:25;12.07;;;5.10;;
54263;SDS011;40178;53.042;6.406;2022-12-18T11:43:02;11.35;;;5.07;;
54263;SDS011;40178;53.042;6.406;2022-12-18T11:45:35;10.85;;;5.10;;
54263;SDS011;40178;53.042;6.406;2022-12-18T11:48:18;8.90;;;4.20;;
54263;SDS011;40178;53.042;6.406;2022-12-18T11:50:50;9.93;;;4.43;;
54263;SDS011;40178;53.042;6.406;2022-12-18T11:53:24;12.77;;;4.87;;
54263;SDS011;40178;53.042;6.406;2022-12-18T11:55:56;9.30;;;4.00;;
54263;SDS011;40178;53.042;6.406;2022-12-18T11:58:27;11.00;;;4.88;;
54263;SDS011;40178;53.042;6.406;2022-12-18T12:01:18;10.25;;;4.70;;
54263;SDS011;40178;53.042;6.406;2022-12-18T12:09:56;9.98;;;4.40;;
54263;SDS011;40178;53.042;6.406;2022-12-18T12:15:42;7.78;;;3.67;;
54263;SDS011;40178;53.042;6.406;2022-12-18T12:21:06;9.35;;;4.43;;
54263;SDS011;40178;53.042;6.406;2022-12-18T12:23:40;8.73;;;3.95;;
54263;SDS011;40178;53.042;6.406;2022-12-18T12:26:18;7.70;;;3.65;;
54263;SDS011;40178;53.042;6.406;2022-12-18T12:29:35;8.95;;;4.43;;
54263;SDS011;40178;53.042;6.406;2022-12-18T12:34:57;10.27;;;4.13;;
54263;SDS011;40178;53.042;6.406;2022-12-18T12:39:59;9.82;;;4.18;;
54263;SDS011;40178;53.042;6.406;2022-12-18T12:42:44;10.10;;;4.32;;
54263;SDS011;40178;53.042;6.406;2022-12-18T12:45:39;11.50;;;5.07;;
54263;SDS011;40178;53.042;6.406;2022-12-18T12:48:26;9.15;;;3.85;;
54263;SDS011;40178;53.042;6.406;2022-12-18T12:50:58;10.07;;;4.35;;
54263;SDS011;40178;53.042;6.406;2022-12-18T12:53:29;11.07;;;4.50;;
54263;SDS011;40178;53.042;6.406;2022-12-18T12:55:57;11.10;;;4.60;;
54263;SDS011;40178;53.042;6.406;2022-12-18T13:03:51;7.93;;;3.85;;
54263;SDS011;40178;53.042;6.406;2022-12-18T13:06:46;9.43;;;4.15;;
54263;SDS011;40178;53.042;6.406;2022-12-18T13:09:29;9.45;;;4.00;;
54263;SDS011;40178;53.042;6.406;2022-12-18T13:12:00;10.65;;;4.43;;
54263;SDS011;40178;53.042;6.406;2022-12-18T13:14:46;8.82;;;3.83;;
54263;SDS011;40178;53.042;6.406;2022-12-18T13:19:47;8.77;;;4.20;;
54263;SDS011;40178;53.042;6.406;2022-12-18T13:22:31;8.77;;;4.10;;
54263;SDS011;40178;53.042;6.406;2022-12-18T13:27:59;9.10;;;4.13;;
54263;SDS011;40178;53.042;6.406;2022-12-18T13:48:51;8.05;;;3.80;;
54263;SDS011;40178;53.042;6.406;2022-12-18T13:51:20;9.95;;;4.30;;
54263;SDS011;40178;53.042;6.406;2022-12-18T13:53:48;8.93;;;3.72;;
54263;SDS011;40178;53.042;6.406;2022-12-18T13:56:31;8.10;;;3.97;;
54263;SDS011;40178;53.042;6.406;2022-12-18T14:06:55;10.68;;;4.60;;
54263;SDS011;40178;53.042;6.406;2022-12-18T14:09:36;8.68;;;4.00;;
54263;SDS011;40178;53.042;6.406;2022-12-18T14:12:05;8.43;;;3.47;;
54263;SDS011;40178;53.042;6.406;2022-12-18T14:14:55;9.25;;;3.65;;
54263;SDS011;40178;53.042;6.406;2022-12-18T14:17:21;9.25;;;3.90;;
54263;SDS011;40178;53.042;6.406;2022-12-18T14:19:48;8.48;;;3.67;;
54263;SDS011;40178;53.042;6.406;2022-12-18T14:22:19;8.27;;;3.85;;
54263;SDS011;40178;53.042;6.406;2022-12-18T14:25:05;8.18;;;3.63;;
54263;SDS011;40178;53.042;6.406;2022-12-18T14:27:50;7.68;;;3.67;;
54263;SDS011;40178;53.042;6.406;2022-12-18T14:33:05;7.45;;;2.97;;
54263;SDS011;40178;53.042;6.406;2022-12-18T14:35:35;8.23;;;3.63;;
54263;SDS011;40178;53.042;6.406;2022-12-18T14:40:40;7.07;;;3.75;;
54263;SDS011;40178;53.042;6.406;2022-12-18T14:43:08;8.40;;;3.78;;
54263;SDS011;40178;53.042;6.406;2022-12-18T14:48:05;10.27;;;4.18;;
54263;SDS011;40178;53.042;6.406;2022-12-18T14:50:34;8.75;;;3.40;;
54263;SDS011;40178;53.042;6.406;2022-12-18T14:52:59;12.95;;;4.85;;
54263;SDS011;40178;53.042;6.406;2022-12-18T14:55:25;9.10;;;4.15;;
54263;SDS011;40178;53.042;6.406;2022-12-18T14:57:52;7.95;;;3.88;;
54263;SDS011;40178;53.042;6.406;2022-12-18T15:00:20;9.60;;;4.20;;
54263;SDS011;40178;53.042;6.406;2022-12-18T15:02:49;9.60;;;3.90;;
54263;SDS011;40178;53.042;6.406;2022-12-18T15:05:25;8.93;;;3.70;;
54263;SDS011;40178;53.042;6.406;2022-12-18T15:10:21;9.18;;;4.20;;
54263;SDS011;40178;53.042;6.406;2022-12-18T15:17:59;8.68;;;4.15;;
54263;SDS011;40178;53.042;6.406;2022-12-18T15:23:17;9.55;;;4.20;;
54263;SDS011;40178;53.042;6.406;2022-12-18T15:25:43;9.80;;;4.40;;
54263;SDS011;40178;53.042;6.406;2022-12-18T15:28:17;10.02;;;4.53;;
54263;SDS011;40178;53.042;6.406;2022-12-18T15:33:39;9.52;;;4.35;;
54263;SDS011;40178;53.042;6.406;2022-12-18T15:36:15;9.95;;;4.40;;
54263;SDS011;40178;53.042;6.406;2022-12-18T15:38:43;10.45;;;4.68;;
54263;SDS011;40178;53.042;6.406;2022-12-18T15:41:15;8.75;;;4.18;;
54263;SDS011;40178;53.042;6.406;2022-12-18T15:43:42;8.77;;;4.50;;
54263;SDS011;40178;53.042;6.406;2022-12-18T15:46:14;10.63;;;4.53;;
54263;SDS011;40178;53.042;6.406;2022-12-18T15:48:42;11.23;;;5.13;;
54263;SDS011;40178;53.042;6.406;2022-12-18T15:51:17;10.20;;;4.57;;
54263;SDS011;40178;53.042;6.406;2022-12-18T15:53:48;10.68;;;5.32;;
54263;SDS011;40178;53.042;6.406;2022-12-18T15:56:17;11.65;;;5.45;;
54263;SDS011;40178;53.042;6.406;2022-12-18T15:59:04;11.10;;;4.80;;
54263;SDS011;40178;53.042;6.406;2022-12-18T16:01:35;9.05;;;5.18;;
54263;SDS011;40178;53.042;6.406;2022-12-18T16:04:01;12.52;;;5.35;;
54263;SDS011;40178;53.042;6.406;2022-12-18T16:06:27;12.52;;;5.50;;
54263;SDS011;40178;53.042;6.406;2022-12-18T16:08:52;11.10;;;5.15;;
54263;SDS011;40178;53.042;6.406;2022-12-18T16:14:19;9.95;;;4.88;;
54263;SDS011;40178;53.042;6.406;2022-12-18T16:16:50;13.57;;;6.03;;
54263;SDS011;40178;53.042;6.406;2022-12-18T16:19:18;15.90;;;7.13;;
54263;SDS011;40178;53.042;6.406;2022-12-18T16:21:45;10.00;;;4.82;;
54263;SDS011;40178;53.042;6.406;2022-12-18T16:24:33;11.13;;;6.07;;
54263;SDS011;40178;53.042;6.406;2022-12-18T16:26:58;11.68;;;6.20;;
54263;SDS011;40178;53.042;6.406;2022-12-18T16:29:25;11.20;;;5.70;;
54263;SDS011;40178;53.042;6.406;2022-12-18T16:31:56;11.73;;;5.78;;
54263;SDS011;40178;53.042;6.406;2022-12-18T16:34:24;10.70;;;5.35;;
54263;SDS011;40178;53.042;6.406;2022-12-18T16:36:53;10.93;;;5.75;;
54263;SDS011;40178;53.042;6.406;2022-12-18T16:39:19;10.95;;;5.20;;
54263;SDS011;40178;53.042;6.406;2022-12-18T16:41:45;12.88;;;6.28;;
54263;SDS011;40178;53.042;6.406;2022-12-18T16:44:12;12.27;;;6.18;;